Observations for Trim Patrick St
| Time | AQI | Temp °C | Hum % | Pres Pa | CO μg/m³ | H₂S μg/m³ | NO μg/m³ | NO₂ μg/m³ | O₃ μg/m³ | SO₂ μg/m³ | PM1 μg/m³ | PM2.5 μg/m³ | PM10 μg/m³ |
|---|---|---|---|---|---|---|---|---|---|---|---|---|---|
| Friday 7 August 2026 | |||||||||||||
| 02:46 | 2 | 12.3 | 77 | 38,460 | 0.28 | 3.66 | 3.84 | 23.99 | 23.32 | 0 | 2.86 | 6.1 | 6.71 |
| 02:45 | 2 | 12.3 | 77 | 38,460 | 0.29 | 3.76 | 3.78 | 14.29 | 21.24 | 0 | 2.86 | 6.81 | 7.49 |
| 02:44 | 2 | 12.4 | 77 | 38,460 | 0.27 | 4.82 | 3.7 | 32.59 | 45.87 | 0 | 3.71 | 6.81 | 7.49 |
| 02:43 | 2 | 12.4 | 77 | 38,460 | 0.28 | 2.65 | 3.72 | 17.48 | 24.61 | 0 | 2.86 | 6.86 | 7.54 |
| 02:42 | 2 | 12.4 | 77 | 38,460 | 0.28 | 3.74 | 3.73 | 16.25 | 28.12 | 0 | 2 | 6.14 | 6.76 |
| 02:41 | 2 | 12.4 | 77 | 38,460 | 0.27 | 3.58 | 3.68 | 24.31 | 25.15 | 0 | 2.86 | 6.82 | 7.5 |
| 02:40 | 2 | 12.4 | 77 | 38,460 | 0.28 | 3.71 | 3.73 | 21.07 | 30.17 | 0 | 2.86 | 6.83 | 7.51 |
| 02:39 | 2 | 12.5 | 77 | 38,460 | 0.28 | 4.2 | 3.69 | 19.61 | 33.59 | 0 | 3.71 | 6.84 | 7.52 |
| 02:38 | 2 | 12.5 | 77 | 38,460 | 0.28 | 3.45 | 3.72 | 16.45 | 29.76 | 0 | 3.71 | 7.54 | 8.3 |
| 02:37 | 2 | 12.5 | 77 | 38,460 | 0.28 | 4.44 | 3.73 | 25.49 | 24.67 | 0 | 3.71 | 6.84 | 7.53 |
| 02:36 | 2 | 12.5 | 77 | 38,460 | 0.27 | 3.35 | 3.84 | 15.71 | 33.12 | 0 | 2.86 | 7.55 | 8.3 |
| 02:35 | 2 | 12.5 | 77 | 38,460 | 0.28 | 3.97 | 3.87 | 21.32 | 24.28 | 0 | 2.86 | 7.55 | 8.3 |
| 02:33 | 2 | 12.5 | 77 | 38,460 | 0.28 | 5.78 | 3.87 | 26.72 | 44.2 | 0 | 3.71 | 7.56 | 8.32 |
| 02:32 | 2 | 12.6 | 76 | 38,460 | 0.27 | 4.9 | 3.74 | 23.65 | 35.28 | 0 | 2.86 | 6.86 | 7.55 |
| 02:31 | 2 | 12.6 | 76 | 38,460 | 0.27 | 4.02 | 3.7 | 22.33 | 39.92 | 0 | 2.86 | 6.88 | 7.57 |
| 02:28 | 2 | 12.7 | 76 | 38,460 | 0.26 | 3.92 | 3.63 | 19.65 | 22.43 | 0 | 3.71 | 6.88 | 7.57 |
| 02:27 | 2 | 12.6 | 76 | 38,460 | 0.27 | 4.08 | 3.64 | 23.17 | 39.75 | 0 | 3.71 | 7.59 | 8.35 |
| 02:24 | 2 | 12.7 | 75 | 38,460 | 0.25 | 4.34 | 3.65 | 20.54 | 42.55 | 0 | 3.71 | 6.94 | 7.63 |
| 02:23 | 2 | 12.7 | 76 | 38,460 | 0.26 | 4.16 | 3.63 | 15.37 | 29.52 | 0 | 3.71 | 6.91 | 7.6 |
| 02:22 | 2 | 12.7 | 76 | 38,460 | 0.25 | 5.19 | 3.67 | 20.63 | 27.85 | 0 | 3.71 | 6.91 | 7.6 |